Time;durP1;ratioP1;P1;durP2;ratioP2;P2;SDS_P1;SDS_P2;PMS_P1;PMS_P2;Temp;Humidity;BMP_temperature;BMP_pressure;BME280_temperature;BME280_humidity;BME280_pressure;Samples;Min_cycle;Max_cycle;Signal;HPM_P1;HPM_P2
2023/10/05 00:01:46;;;;;;;;;;;;;;;;;;112437;210;39598;-35
2023/10/05 00:04:19;;;;;;;;;;;;;;;;;;112433;210;43003;-35
2023/10/05 00:06:54;;;;;;;;;;;;;;;;;;112418;210;41792;-33
2023/10/05 00:09:28;;;;;;;;;;;;;;;;;;112384;210;39036;-34
2023/10/05 00:12:05;;;;;;;;;;;;;;;;;;112387;210;39565;-34
2023/10/05 00:14:40;;;;;;;;;;;;;;;;;;112413;210;42923;-34
2023/10/05 00:17:16;;;;;;;;;;;;;;;;;;112382;210;41715;-34
2023/10/05 00:19:51;;;;;;;;;;;;;;;;;;112440;210;38769;-34
2023/10/05 00:22:24;;;;;;;;;;;;;;;;;;112440;210;39989;-34
2023/10/05 00:25:03;;;;;;;;;;;;;;;;;;112396;210;42741;-34
2023/10/05 00:27:37;;;;;;;;;;;;;;;;;;112266;210;175599;-34
2023/10/05 00:30:14;;;;;;;;;;;;;;;;;;112420;210;38747;-34
2023/10/05 00:32:49;;;;;;;;;;;;;;;;;;112455;210;39735;-34
2023/10/05 00:35:26;;;;;;;;;;;;;;;;;;112521;210;44023;-34
2023/10/05 00:38:08;;;;;;;;;;;;;;;;;;112449;210;42941;-34
2023/10/05 00:40:55;;;;;;;;;;;;;;;;;;112489;210;38598;-34
2023/10/05 00:43:28;;;;;;;;;;;;;;;;;;112504;210;39570;-34
2023/10/05 00:46:04;;;;;;;;;;;;;;;;;;112528;210;43099;-34
2023/10/05 00:48:40;;;;;;;;;;;;;;;;;;112484;210;41464;-34
2023/10/05 00:51:17;;;;;;;;;;;;;;;;;;112493;210;38604;-34
2023/10/05 00:53:50;;;;;;;;;;;;;;;;;;112548;210;39756;-34
2023/10/05 00:56:24;;;;;;;;;;;;;;;;;;112556;210;42957;-34
2023/10/05 00:59:04;;;;;;;;;;;;;;;;;;112501;210;43346;-34
2023/10/05 01:01:58;;;;;;;;;;;;;;;;;;112507;210;38884;-34
2023/10/05 01:04:53;;;;;;;;;;;;;;;;;;112535;210;39572;-34
2023/10/05 01:07:43;;;;;;;;;;;;;;;;;;112563;210;42793;-34
2023/10/05 01:10:29;;;;;;;;;;;;;;;;;;112527;210;47851;-34
2023/10/05 01:13:03;;;;;;;;;;;;;;;;;;112550;210;38705;-34
2023/10/05 01:15:38;;;;;;;;;;;;;;;;;;112509;210;39950;-34
2023/10/05 01:18:10;;;;;;;;;;;;;;;;;;112488;210;42702;-34
2023/10/05 01:20:49;;;;;;;;;;;;;;;;;;112542;210;48156;-34
2023/10/05 01:23:37;;;;;;;;;;;;;;;;;;112540;210;38552;-34
2023/10/05 01:26:12;;;;;;;;;;;;;;;;;;112528;210;39607;-34
2023/10/05 01:28:44;;;;;;;;;;;;;;;;;;112556;209;42799;-35
2023/10/05 01:31:17;;;;;;;;;;;;;;;;;;112534;210;43021;-35
2023/10/05 01:33:52;;;;;;;;;;;;;;;;;;112554;210;38856;-35
2023/10/05 01:36:27;;;;;;;;;;;;;;;;;;112579;210;39715;-35
2023/10/05 01:39:08;;;;;;;;;;;;;;;;;;112561;209;42983;-35
2023/10/05 01:41:41;;;;;;;;;;;;;;;;;;112598;210;41751;-35
2023/10/05 01:44:14;;;;;;;;;;;;;;;;;;112570;210;38911;-35
2023/10/05 01:46:49;;;;;;;;;;;;;;;;;;112548;210;39736;-35
2023/10/05 01:49:25;;;;;;;;;;;;;;;;;;111861;209;895677;-35
2023/10/05 01:51:59;;;;;;;;;;;;;;;;;;112529;210;41637;-35
2023/10/05 01:54:34;;;;;;;;;;;;;;;;;;112454;210;175648;-35
2023/10/05 01:57:09;;;;;;;;;;;;;;;;;;112534;210;39800;-35
2023/10/05 01:59:44;;;;;;;;;;;;;;;;;;112514;209;42749;-35
2023/10/05 02:02:17;;;;;;;;;;;;;;;;;;112510;210;41790;-34
2023/10/05 02:04:51;;;;;;;;;;;;;;;;;;112562;210;39018;-36
2023/10/05 02:07:25;;;;;;;;;;;;;;;;;;112566;210;39765;-36
2023/10/05 02:09:59;;;;;;;;;;;;;;;;;;112535;209;43679;-36
2023/10/05 02:12:40;;;;;;;;;;;;;;;;;;112593;210;41439;-36
2023/10/05 02:15:16;;;;;;;;;;;;;;;;;;112576;210;38852;-36
2023/10/05 02:17:50;;;;;;;;;;;;;;;;;;112574;210;39754;-36
2023/10/05 02:20:43;;;;;;;;;;;;;;;;;;112496;209;42778;-36
2023/10/05 02:23:25;;;;;;;;;;;;;;;;;;112513;210;41590;-36
2023/10/05 02:26:03;;;;;;;;;;;;;;;;;;112510;210;38683;-36
2023/10/05 02:28:38;;;;;;;;;;;;;;;;;;112520;210;39608;-36
2023/10/05 02:31:16;;;;;;;;;;;;;;;;;;112470;209;42510;-36
2023/10/05 02:33:52;;;;;;;;;;;;;;;;;;112496;209;41632;-36
2023/10/05 02:36:27;;;;;;;;;;;;;;;;;;112542;210;38893;-36
2023/10/05 02:39:01;;;;;;;;;;;;;;;;;;112542;210;39938;-36
2023/10/05 02:41:39;;;;;;;;;;;;;;;;;;112490;209;42772;-36
2023/10/05 02:44:19;;;;;;;;;;;;;;;;;;112493;210;41859;-36
2023/10/05 02:46:53;;;;;;;;;;;;;;;;;;111849;210;640992;-36
2023/10/05 02:49:30;;;;;;;;;;;;;;;;;;112451;210;39567;-36
2023/10/05 02:52:10;;;;;;;;;;;;;;;;;;112487;209;42845;-36
2023/10/05 02:54:47;;;;;;;;;;;;;;;;;;112516;210;41950;-36
2023/10/05 02:57:25;;;;;;;;;;;;;;;;;;112498;210;38717;-36
2023/10/05 02:59:59;;;;;;;;;;;;;;;;;;112566;210;39776;-37
2023/10/05 03:02:44;;;;;;;;;;;;;;;;;;112497;209;43017;-37
2023/10/05 03:05:20;;;;;;;;;;;;;;;;;;112531;210;41789;-37
2023/10/05 03:07:56;;;;;;;;;;;;;;;;;;112523;210;38928;-37
2023/10/05 03:10:36;;;;;;;;;;;;;;;;;;112479;210;39595;-37
2023/10/05 03:13:13;;;;;;;;;;;;;;;;;;112517;210;42827;-37
2023/10/05 03:15:49;;;;;;;;;;;;;;;;;;112501;210;43845;-37
2023/10/05 03:18:25;;;;;;;;;;;;;;;;;;112528;209;38813;-37
2023/10/05 03:20:59;;;;;;;;;;;;;;;;;;112477;209;39768;-37
2023/10/05 03:23:33;;;;;;;;;;;;;;;;;;112518;210;42806;-37
2023/10/05 03:26:07;;;;;;;;;;;;;;;;;;112499;210;41594;-37
2023/10/05 03:28:42;;;;;;;;;;;;;;;;;;112524;210;38899;-37
2023/10/05 03:31:24;;;;;;;;;;;;;;;;;;112405;209;192944;-37
2023/10/05 03:34:06;;;;;;;;;;;;;;;;;;112556;209;42762;-37
2023/10/05 03:36:47;;;;;;;;;;;;;;;;;;112543;210;41756;-37
2023/10/05 03:39:25;;;;;;;;;;;;;;;;;;112569;210;38727;-37
2023/10/05 03:42:03;;;;;;;;;;;;;;;;;;112499;209;39779;-37
2023/10/05 03:44:37;;;;;;;;;;;;;;;;;;112527;210;42950;-37
2023/10/05 03:47:11;;;;;;;;;;;;;;;;;;112531;209;41657;-37
2023/10/05 03:49:55;;;;;;;;;;;;;;;;;;112541;210;38729;-37
2023/10/05 03:52:32;;;;;;;;;;;;;;;;;;112522;209;39624;-37
2023/10/05 03:55:10;;;;;;;;;;;;;;;;;;112552;210;43067;-37
2023/10/05 03:57:44;;;;;;;;;;;;;;;;;;112534;210;42356;-37
2023/10/05 04:00:31;;;;;;;;;;;;;;;;;;112533;210;38470;-37
2023/10/05 04:03:07;;;;;;;;;;;;;;;;;;112389;209;193007;-37
2023/10/05 04:06:04;;;;;;;;;;;;;;;;;;112526;209;43971;-37
2023/10/05 04:08:36;;;;;;;;;;;;;;;;;;112560;210;42860;-37
2023/10/05 04:11:11;;;;;;;;;;;;;;;;;;112509;210;39030;-37
2023/10/05 04:13:50;;;;;;;;;;;;;;;;;;112505;209;39592;-37
2023/10/05 04:16:33;;;;;;;;;;;;;;;;;;112518;210;44073;-37
2023/10/05 04:19:10;;;;;;;;;;;;;;;;;;112483;210;42706;-37
2023/10/05 04:21:42;;;;;;;;;;;;;;;;;;112565;210;38757;-37
2023/10/05 04:24:17;;;;;;;;;;;;;;;;;;112457;210;45218;-37
2023/10/05 04:26:51;;;;;;;;;;;;;;;;;;112501;210;44346;-37
2023/10/05 04:29:26;;;;;;;;;;;;;;;;;;112504;210;41798;-37
2023/10/05 04:31:58;;;;;;;;;;;;;;;;;;112525;210;38703;-37
2023/10/05 04:34:32;;;;;;;;;;;;;;;;;;112410;209;46353;-37
2023/10/05 04:37:04;;;;;;;;;;;;;;;;;;112401;210;42816;-37
2023/10/05 04:39:40;;;;;;;;;;;;;;;;;;112433;210;42958;-37
2023/10/05 04:42:15;;;;;;;;;;;;;;;;;;112420;210;38909;-37
2023/10/05 04:44:52;;;;;;;;;;;;;;;;;;112341;210;45504;-37
2023/10/05 04:47:27;;;;;;;;;;;;;;;;;;112431;210;42862;-35
2023/10/05 04:50:02;;;;;;;;;;;;;;;;;;112439;210;41819;-35
2023/10/05 04:52:36;;;;;;;;;;;;;;;;;;112455;210;38450;-35
2023/10/05 04:55:22;;;;;;;;;;;;;;;;;;112372;210;45696;-35
2023/10/05 04:58:14;;;;;;;;;;;;;;;;;;112417;210;44115;-35
2023/10/05 05:01:14;;;;;;;;;;;;;;;;;;112426;210;41832;-35
2023/10/05 05:03:55;;;;;;;;;;;;;;;;;;112429;210;39821;-36
2023/10/05 05:06:32;;;;;;;;;;;;;;;;;;112465;210;39796;-36
2023/10/05 05:09:11;;;;;;;;;;;;;;;;;;112370;210;42835;-36
2023/10/05 05:11:49;;;;;;;;;;;;;;;;;;112437;210;42229;-36
2023/10/05 05:14:28;;;;;;;;;;;;;;;;;;112389;210;38841;-36
2023/10/05 05:17:02;;;;;;;;;;;;;;;;;;112401;210;39291;-36
2023/10/05 05:19:37;;;;;;;;;;;;;;;;;;112474;210;43031;-36
2023/10/05 05:22:11;;;;;;;;;;;;;;;;;;112446;210;41659;-36
2023/10/05 05:24:44;;;;;;;;;;;;;;;;;;112489;210;39041;-36
2023/10/05 05:27:21;;;;;;;;;;;;;;;;;;112442;210;40069;-36
2023/10/05 05:29:53;;;;;;;;;;;;;;;;;;112403;210;43011;-36
2023/10/05 05:32:27;;;;;;;;;;;;;;;;;;112407;210;41726;-36
2023/10/05 05:35:05;;;;;;;;;;;;;;;;;;112437;210;39031;-36
2023/10/05 05:37:42;;;;;;;;;;;;;;;;;;112450;210;39582;-36
2023/10/05 05:40:20;;;;;;;;;;;;;;;;;;112414;210;42976;-36
2023/10/05 05:42:55;;;;;;;;;;;;;;;;;;112434;210;41805;-36
2023/10/05 05:45:31;;;;;;;;;;;;;;;;;;112358;210;38475;-36
2023/10/05 05:48:08;;;;;;;;;;;;;;;;;;112460;210;39695;-36
2023/10/05 05:50:44;;;;;;;;;;;;;;;;;;112409;210;42956;-36
2023/10/05 05:53:18;;;;;;;;;;;;;;;;;;112291;210;175677;-36
2023/10/05 05:55:54;;;;;;;;;;;;;;;;;;112351;210;38686;-36
2023/10/05 05:58:27;;;;;;;;;;;;;;;;;;112449;210;39681;-36
2023/10/05 06:01:01;;;;;;;;;;;;;;;;;;112470;210;43267;-36
2023/10/05 06:03:35;;;;;;;;;;;;;;;;;;112424;210;41720;-36
2023/10/05 06:06:07;;;;;;;;;;;;;;;;;;112417;210;39845;-36
2023/10/05 06:08:40;;;;;;;;;;;;;;;;;;112427;210;40801;-36
2023/10/05 06:11:15;;;;;;;;;;;;;;;;;;112422;210;43019;-36
2023/10/05 06:13:47;;;;;;;;;;;;;;;;;;112499;210;41640;-36
2023/10/05 06:16:20;;;;;;;;;;;;;;;;;;112392;210;38677;-36
2023/10/05 06:18:54;;;;;;;;;;;;;;;;;;112465;210;39263;-36
2023/10/05 06:21:27;;;;;;;;;;;;;;;;;;112417;210;42815;-36
2023/10/05 06:23:59;;;;;;;;;;;;;;;;;;112311;210;175610;-36
2023/10/05 06:26:32;;;;;;;;;;;;;;;;;;112412;210;38597;-36
2023/10/05 06:29:08;;;;;;;;;;;;;;;;;;112414;210;39766;-36
2023/10/05 06:31:43;;;;;;;;;;;;;;;;;;112475;210;42805;-36
2023/10/05 06:34:17;;;;;;;;;;;;;;;;;;112534;210;41426;-36
2023/10/05 06:36:52;;;;;;;;;;;;;;;;;;112501;209;38906;-36
2023/10/05 06:39:28;;;;;;;;;;;;;;;;;;112513;210;40068;-36
2023/10/05 06:42:00;;;;;;;;;;;;;;;;;;112552;209;42924;-36
2023/10/05 06:44:33;;;;;;;;;;;;;;;;;;112554;210;43839;-36
2023/10/05 06:47:18;;;;;;;;;;;;;;;;;;112409;209;175284;-36
2023/10/05 06:49:51;;;;;;;;;;;;;;;;;;112533;210;39656;-36
2023/10/05 06:52:24;;;;;;;;;;;;;;;;;;112407;210;175681;-36
2023/10/05 06:54:59;;;;;;;;;;;;;;;;;;112548;210;41553;-36
2023/10/05 06:57:31;;;;;;;;;;;;;;;;;;112508;209;38489;-36
2023/10/05 07:00:11;;;;;;;;;;;;;;;;;;112563;210;39621;-36
2023/10/05 07:02:46;;;;;;;;;;;;;;;;;;112541;210;42880;-36
2023/10/05 07:05:21;;;;;;;;;;;;;;;;;;112544;210;41848;-36
2023/10/05 07:07:59;;;;;;;;;;;;;;;;;;112543;209;45634;-36
2023/10/05 07:10:34;;;;;;;;;;;;;;;;;;112418;209;175628;-36
2023/10/05 07:13:10;;;;;;;;;;;;;;;;;;112560;209;42845;-36
2023/10/05 07:15:45;;;;;;;;;;;;;;;;;;112546;210;41680;-36
2023/10/05 07:18:19;;;;;;;;;;;;;;;;;;112489;209;39020;-36
2023/10/05 07:20:53;;;;;;;;;;;;;;;;;;112575;209;41007;-36
2023/10/05 07:23:31;;;;;;;;;;;;;;;;;;112529;209;42917;-36
2023/10/05 07:26:06;;;;;;;;;;;;;;;;;;112518;209;41920;-36
2023/10/05 07:28:41;;;;;;;;;;;;;;;;;;112568;210;44925;-36
2023/10/05 07:31:14;;;;;;;;;;;;;;;;;;112551;210;40037;-36
2023/10/05 07:33:48;;;;;;;;;;;;;;;;;;112555;209;42776;-36
2023/10/05 07:36:25;;;;;;;;;;;;;;;;;;112480;209;41713;-36
2023/10/05 07:38:58;;;;;;;;;;;;;;;;;;112494;210;46416;-36
2023/10/05 07:41:31;;;;;;;;;;;;;;;;;;112559;209;40876;-36
2023/10/05 07:44:05;;;;;;;;;;;;;;;;;;112554;210;44236;-36
2023/10/05 07:46:39;;;;;;;;;;;;;;;;;;112583;209;41870;-36
2023/10/05 07:49:13;;;;;;;;;;;;;;;;;;112536;210;45110;-36
2023/10/05 07:51:47;;;;;;;;;;;;;;;;;;112533;210;39812;-36
2023/10/05 07:54:19;;;;;;;;;;;;;;;;;;112524;210;42939;-36
2023/10/05 07:56:53;;;;;;;;;;;;;;;;;;112530;209;41567;-36
2023/10/05 07:59:27;;;;;;;;;;;;;;;;;;112520;210;45337;-36
2023/10/05 08:02:01;;;;;;;;;;;;;;;;;;112529;210;39739;-36
2023/10/05 08:04:35;;;;;;;;;;;;;;;;;;112541;209;42944;-36
2023/10/05 08:07:15;;;;;;;;;;;;;;;;;;111845;209;896801;-36
2023/10/05 08:09:48;;;;;;;;;;;;;;;;;;112597;210;38716;-36
2023/10/05 08:12:27;;;;;;;;;;;;;;;;;;112559;209;39709;-36
2023/10/05 08:15:01;;;;;;;;;;;;;;;;;;112561;209;42786;-35
2023/10/05 08:17:36;;;;;;;;;;;;;;;;;;112541;209;41966;-36
2023/10/05 08:20:12;;;;;;;;;;;;;;;;;;112439;210;38841;-35
2023/10/05 08:22:47;;;;;;;;;;;;;;;;;;112559;210;39387;-35
2023/10/05 08:25:24;;;;;;;;;;;;;;;;;;112547;210;43250;-35
2023/10/05 08:27:59;;;;;;;;;;;;;;;;;;112548;209;41590;-36
2023/10/05 08:30:45;;;;;;;;;;;;;;;;;;112492;210;38670;-36
2023/10/05 08:33:23;;;;;;;;;;;;;;;;;;112522;210;39612;-36
2023/10/05 08:36:00;;;;;;;;;;;;;;;;;;112545;210;43014;-36
2023/10/05 08:38:35;;;;;;;;;;;;;;;;;;112503;210;41636;-37
2023/10/05 08:41:07;;;;;;;;;;;;;;;;;;112492;210;38537;-36
2023/10/05 08:43:46;;;;;;;;;;;;;;;;;;112485;210;39800;-34
2023/10/05 08:46:25;;;;;;;;;;;;;;;;;;112525;210;43104;-36
2023/10/05 08:49:07;;;;;;;;;;;;;;;;;;112502;210;41379;-36
2023/10/05 08:51:44;;;;;;;;;;;;;;;;;;112401;210;39818;-36
2023/10/05 08:54:31;;;;;;;;;;;;;;;;;;112529;210;41233;-36
2023/10/05 08:57:10;;;;;;;;;;;;;;;;;;112493;210;42992;-36
2023/10/05 08:59:46;;;;;;;;;;;;;;;;;;112492;210;41597;-36
2023/10/05 09:02:22;;;;;;;;;;;;;;;;;;112509;210;38416;-36
2023/10/05 09:04:59;;;;;;;;;;;;;;;;;;112509;210;39686;-36
2023/10/05 09:07:35;;;;;;;;;;;;;;;;;;112477;210;42952;-36
2023/10/05 09:10:15;;;;;;;;;;;;;;;;;;112441;210;41627;-36
2023/10/05 09:13:07;;;;;;;;;;;;;;;;;;112492;210;40057;-37
2023/10/05 09:15:52;;;;;;;;;;;;;;;;;;112430;210;40006;-36
2023/10/05 09:18:27;;;;;;;;;;;;;;;;;;112460;210;44170;-37
2023/10/05 09:21:05;;;;;;;;;;;;;;;;;;112488;210;49259;-37
2023/10/05 09:23:42;;;;;;;;;;;;;;;;;;112427;210;38732;-37
2023/10/05 09:26:33;;;;;;;;;;;;;;;;;;112477;210;39620;-37
2023/10/05 09:29:28;;;;;;;;;;;;;;;;;;112455;210;42818;-36
2023/10/05 09:32:08;;;;;;;;;;;;;;;;;;112459;210;41762;-40
2023/10/05 09:34:49;;;;;;;;;;;;;;;;;;112494;210;38507;-39
2023/10/05 09:37:27;;;;;;;;;;;;;;;;;;112403;210;39515;-38
2023/10/05 09:40:03;;;;;;;;;;;;;;;;;;112456;210;42918;-37
2023/10/05 09:42:37;;;;;;;;;;;;;;;;;;112442;210;41845;-37
2023/10/05 09:45:17;;;;;;;;;;;;;;;;;;112497;210;38679;-37
2023/10/05 09:47:55;;;;;;;;;;;;;;;;;;112403;210;175577;-37
2023/10/05 09:50:31;;;;;;;;;;;;;;;;;;112460;209;42824;-38
2023/10/05 09:53:08;;;;;;;;;;;;;;;;;;112520;210;41693;-36
2023/10/05 09:55:46;;;;;;;;;;;;;;;;;;112419;209;39030;-36
2023/10/05 09:58:23;;;;;;;;;;;;;;;;;;112453;210;39776;-36
2023/10/05 10:01:10;;;;;;;;;;;;;;;;;;112507;209;42577;-36
2023/10/05 10:03:47;;;;;;;;;;;;;;;;;;112558;210;41676;-36
2023/10/05 10:06:28;;;;;;;;;;;;;;;;;;112505;210;38823;-37
2023/10/05 10:09:09;;;;;;;;;;;;;;;;;;112552;210;39904;-37
2023/10/05 10:11:50;;;;;;;;;;;;;;;;;;112495;209;42780;-37
2023/10/05 10:14:26;;;;;;;;;;;;;;;;;;112424;210;43085;-37
2023/10/05 10:17:02;;;;;;;;;;;;;;;;;;112390;210;39938;-37
2023/10/05 10:19:45;;;;;;;;;;;;;;;;;;112544;210;41176;-37
2023/10/05 10:22:28;;;;;;;;;;;;;;;;;;112466;210;48540;-37
2023/10/05 10:25:10;;;;;;;;;;;;;;;;;;112413;210;42027;-37
2023/10/05 10:27:46;;;;;;;;;;;;;;;;;;112487;210;38784;-37
2023/10/05 10:30:23;;;;;;;;;;;;;;;;;;111765;209;896856;-37
2023/10/05 10:33:30;;;;;;;;;;;;;;;;;;112457;210;49544;-37
2023/10/05 10:36:06;;;;;;;;;;;;;;;;;;112448;210;41741;-37
2023/10/05 10:38:39;;;;;;;;;;;;;;;;;;112389;210;38707;-37
2023/10/05 10:41:15;;;;;;;;;;;;;;;;;;112480;209;39554;-37
2023/10/05 10:43:52;;;;;;;;;;;;;;;;;;112478;210;42559;-37
2023/10/05 10:46:30;;;;;;;;;;;;;;;;;;112158;210;422678;-37
2023/10/05 10:49:07;;;;;;;;;;;;;;;;;;112481;210;38833;-37
2023/10/05 10:51:42;;;;;;;;;;;;;;;;;;112505;209;39673;-37
2023/10/05 10:54:22;;;;;;;;;;;;;;;;;;112486;209;42815;-37
2023/10/05 10:56:58;;;;;;;;;;;;;;;;;;112515;210;41511;-37
2023/10/05 10:59:41;;;;;;;;;;;;;;;;;;112522;210;38698;-37
2023/10/05 11:02:19;;;;;;;;;;;;;;;;;;112478;209;40343;-37
2023/10/05 11:05:03;;;;;;;;;;;;;;;;;;112520;210;42755;-37
2023/10/05 11:07:39;;;;;;;;;;;;;;;;;;112572;210;41405;-37
2023/10/05 11:10:21;;;;;;;;;;;;;;;;;;112397;209;175641;-37
2023/10/05 11:12:57;;;;;;;;;;;;;;;;;;112490;209;40098;-37
2023/10/05 11:15:31;;;;;;;;;;;;;;;;;;112433;210;42796;-37
2023/10/05 11:18:17;;;;;;;;;;;;;;;;;;112590;210;41795;-37
2023/10/05 11:20:56;;;;;;;;;;;;;;;;;;112511;210;39043;-37
2023/10/05 11:23:29;;;;;;;;;;;;;;;;;;112477;209;39586;-38
2023/10/05 11:26:17;;;;;;;;;;;;;;;;;;112550;209;43008;-37
2023/10/05 11:28:52;;;;;;;;;;;;;;;;;;112541;209;41826;-38
2023/10/05 11:31:28;;;;;;;;;;;;;;;;;;112499;210;38706;-38
2023/10/05 11:34:28;;;;;;;;;;;;;;;;;;112467;210;45683;-37
2023/10/05 11:37:26;;;;;;;;;;;;;;;;;;112456;210;42826;-37
2023/10/05 11:40:05;;;;;;;;;;;;;;;;;;112497;210;41701;-37
2023/10/05 11:42:41;;;;;;;;;;;;;;;;;;112509;209;39269;-37
2023/10/05 11:45:19;;;;;;;;;;;;;;;;;;112437;210;39600;-37
2023/10/05 11:48:03;;;;;;;;;;;;;;;;;;112461;210;42769;-36
2023/10/05 11:50:50;;;;;;;;;;;;;;;;;;112415;209;42961;-36
2023/10/05 11:53:31;;;;;;;;;;;;;;;;;;112393;210;38911;-36
2023/10/05 11:56:08;;;;;;;;;;;;;;;;;;112477;210;39761;-36
2023/10/05 11:58:42;;;;;;;;;;;;;;;;;;112497;209;42921;-39
2023/10/05 12:01:18;;;;;;;;;;;;;;;;;;112367;210;41848;-37
2023/10/05 12:03:55;;;;;;;;;;;;;;;;;;112476;209;38997;-35
2023/10/05 12:06:29;;;;;;;;;;;;;;;;;;112533;210;39594;-36
2023/10/05 12:09:07;;;;;;;;;;;;;;;;;;112545;210;42992;-36
2023/10/05 12:11:44;;;;;;;;;;;;;;;;;;112523;210;41862;-36
2023/10/05 12:14:18;;;;;;;;;;;;;;;;;;112419;209;39027;-39
2023/10/05 12:16:56;;;;;;;;;;;;;;;;;;112516;210;39398;-37
2023/10/05 12:19:30;;;;;;;;;;;;;;;;;;112558;210;42990;-37
2023/10/05 12:22:07;;;;;;;;;;;;;;;;;;112528;210;41658;-37
2023/10/05 12:24:45;;;;;;;;;;;;;;;;;;112506;209;38944;-38
2023/10/05 12:27:20;;;;;;;;;;;;;;;;;;112458;210;39600;-36
2023/10/05 12:29:53;;;;;;;;;;;;;;;;;;112514;210;42620;-36
2023/10/05 12:32:27;;;;;;;;;;;;;;;;;;112506;210;41778;-36
2023/10/05 12:35:06;;;;;;;;;;;;;;;;;;112473;209;38737;-37
2023/10/05 12:37:39;;;;;;;;;;;;;;;;;;112507;210;39883;-36
2023/10/05 12:40:18;;;;;;;;;;;;;;;;;;112524;210;42792;-37
2023/10/05 12:42:53;;;;;;;;;;;;;;;;;;112535;209;41638;-38
2023/10/05 12:45:29;;;;;;;;;;;;;;;;;;112481;210;38734;-37
2023/10/05 12:48:04;;;;;;;;;;;;;;;;;;112489;210;39615;-37
2023/10/05 12:50:37;;;;;;;;;;;;;;;;;;112506;210;43343;-39
2023/10/05 12:53:12;;;;;;;;;;;;;;;;;;112520;209;41746;-35
2023/10/05 12:55:46;;;;;;;;;;;;;;;;;;112465;209;38773;-36
2023/10/05 12:58:24;;;;;;;;;;;;;;;;;;112500;210;39625;-38
2023/10/05 13:01:07;;;;;;;;;;;;;;;;;;112503;210;43091;-37
2023/10/05 13:03:44;;;;;;;;;;;;;;;;;;112502;210;42001;-36
2023/10/05 13:06:16;;;;;;;;;;;;;;;;;;112605;210;44398;-35
2023/10/05 13:08:56;;;;;;;;;;;;;;;;;;112513;210;41244;-34
2023/10/05 13:11:29;;;;;;;;;;;;;;;;;;112539;210;43019;-37
2023/10/05 13:14:04;;;;;;;;;;;;;;;;;;112517;210;41395;-37
2023/10/05 13:16:38;;;;;;;;;;;;;;;;;;112649;210;46556;-35
2023/10/05 13:19:14;;;;;;;;;;;;;;;;;;112410;210;39747;-38
2023/10/05 13:21:49;;;;;;;;;;;;;;;;;;112481;210;42887;-35
2023/10/05 13:24:23;;;;;;;;;;;;;;;;;;112372;210;41659;-35
2023/10/05 13:26:59;;;;;;;;;;;;;;;;;;112466;209;45718;-36
2023/10/05 13:29:42;;;;;;;;;;;;;;;;;;112382;210;39544;-36
2023/10/05 13:32:17;;;;;;;;;;;;;;;;;;112447;210;42766;-36
2023/10/05 13:34:53;;;;;;;;;;;;;;;;;;112379;209;41423;-39
2023/10/05 13:37:27;;;;;;;;;;;;;;;;;;112532;210;45842;-38
2023/10/05 13:40:04;;;;;;;;;;;;;;;;;;112464;210;39853;-38
2023/10/05 13:42:40;;;;;;;;;;;;;;;;;;112413;210;42842;-40
2023/10/05 13:45:14;;;;;;;;;;;;;;;;;;112505;210;41660;-39
2023/10/05 13:47:48;;;;;;;;;;;;;;;;;;112418;210;39287;-40
2023/10/05 13:50:28;;;;;;;;;;;;;;;;;;112458;210;39727;-40
2023/10/05 13:53:04;;;;;;;;;;;;;;;;;;112487;210;44305;-39
2023/10/05 13:55:41;;;;;;;;;;;;;;;;;;112358;209;175211;-40
2023/10/05 13:58:18;;;;;;;;;;;;;;;;;;112444;210;38674;-40
2023/10/05 14:00:50;;;;;;;;;;;;;;;;;;112469;210;41049;-40
2023/10/05 14:03:22;;;;;;;;;;;;;;;;;;112392;210;42557;-39
2023/10/05 14:06:01;;;;;;;;;;;;;;;;;;112438;210;41637;-39
2023/10/05 14:08:35;;;;;;;;;;;;;;;;;;112496;210;40124;-39
2023/10/05 14:11:11;;;;;;;;;;;;;;;;;;112366;210;40804;-39
2023/10/05 14:13:43;;;;;;;;;;;;;;;;;;112492;210;42962;-39
2023/10/05 14:16:16;;;;;;;;;;;;;;;;;;112454;209;41875;-40
2023/10/05 14:18:55;;;;;;;;;;;;;;;;;;112432;210;39173;-40
2023/10/05 14:21:28;;;;;;;;;;;;;;;;;;112435;210;39622;-40
2023/10/05 14:24:02;;;;;;;;;;;;;;;;;;112493;210;42827;-40
2023/10/05 14:26:44;;;;;;;;;;;;;;;;;;112454;209;41916;-40
2023/10/05 14:29:17;;;;;;;;;;;;;;;;;;112401;210;38763;-40
2023/10/05 14:31:55;;;;;;;;;;;;;;;;;;112380;210;175599;-40
2023/10/05 14:34:29;;;;;;;;;;;;;;;;;;112419;210;44393;-40
2023/10/05 14:37:05;;;;;;;;;;;;;;;;;;112461;209;42999;-40
2023/10/05 14:39:40;;;;;;;;;;;;;;;;;;112496;210;39892;-41
2023/10/05 14:42:15;;;;;;;;;;;;;;;;;;112456;210;39737;-40
2023/10/05 14:44:50;;;;;;;;;;;;;;;;;;112440;210;42785;-40
2023/10/05 14:47:22;;;;;;;;;;;;;;;;;;112357;210;41693;-41
2023/10/05 14:49:57;;;;;;;;;;;;;;;;;;112415;210;38880;-41
2023/10/05 14:52:31;;;;;;;;;;;;;;;;;;112477;210;39896;-41
2023/10/05 14:55:08;;;;;;;;;;;;;;;;;;112468;209;43134;-40
2023/10/05 14:57:45;;;;;;;;;;;;;;;;;;112464;209;41950;-39
2023/10/05 15:00:23;;;;;;;;;;;;;;;;;;112355;210;38886;-37
2023/10/05 15:02:57;;;;;;;;;;;;;;;;;;112472;210;39611;-45
2023/10/05 15:05:35;;;;;;;;;;;;;;;;;;112490;210;42929;-44
2023/10/05 15:08:11;;;;;;;;;;;;;;;;;;112399;209;41901;-41
2023/10/05 15:10:49;;;;;;;;;;;;;;;;;;112486;210;38684;-43
2023/10/05 15:13:27;;;;;;;;;;;;;;;;;;112378;209;39680;-38
2023/10/05 15:16:05;;;;;;;;;;;;;;;;;;112397;210;42995;-45
2023/10/05 15:18:43;;;;;;;;;;;;;;;;;;112339;209;41963;-43
2023/10/05 15:21:18;;;;;;;;;;;;;;;;;;112421;210;38691;-41
2023/10/05 15:23:52;;;;;;;;;;;;;;;;;;112440;210;39590;-40
2023/10/05 15:26:29;;;;;;;;;;;;;;;;;;112450;209;42933;-39
2023/10/05 15:29:05;;;;;;;;;;;;;;;;;;112467;209;41631;-39
2023/10/05 15:31:40;;;;;;;;;;;;;;;;;;112427;210;38731;-39
2023/10/05 15:34:16;;;;;;;;;;;;;;;;;;112503;210;39622;-40
2023/10/05 15:36:54;;;;;;;;;;;;;;;;;;112409;210;43165;-41
2023/10/05 15:39:27;;;;;;;;;;;;;;;;;;111701;210;896333;-39
2023/10/05 15:41:59;;;;;;;;;;;;;;;;;;112523;210;37678;-38
2023/10/05 15:44:37;;;;;;;;;;;;;;;;;;112481;210;39464;-39
2023/10/05 15:47:11;;;;;;;;;;;;;;;;;;112486;210;42810;-39
2023/10/05 15:49:47;;;;;;;;;;;;;;;;;;112524;209;42785;-39
2023/10/05 15:52:26;;;;;;;;;;;;;;;;;;112526;209;39031;-40
2023/10/05 15:55:00;;;;;;;;;;;;;;;;;;112533;210;39612;-39
2023/10/05 15:57:33;;;;;;;;;;;;;;;;;;112450;210;42726;-39
2023/10/05 16:00:16;;;;;;;;;;;;;;;;;;112404;209;47471;-39
2023/10/05 16:02:55;;;;;;;;;;;;;;;;;;112536;209;38858;-39
2023/10/05 16:05:29;;;;;;;;;;;;;;;;;;112562;210;39731;-39
2023/10/05 16:08:05;;;;;;;;;;;;;;;;;;112493;209;42768;-39
2023/10/05 16:10:39;;;;;;;;;;;;;;;;;;112370;209;47790;-39
2023/10/05 16:13:15;;;;;;;;;;;;;;;;;;112463;210;38736;-39
2023/10/05 16:15:51;;;;;;;;;;;;;;;;;;112457;210;39743;-39
2023/10/05 16:18:24;;;;;;;;;;;;;;;;;;112390;209;42949;-39
2023/10/05 16:21:02;;;;;;;;;;;;;;;;;;112485;210;47714;-41
2023/10/05 16:23:38;;;;;;;;;;;;;;;;;;112562;210;38715;-39
2023/10/05 16:26:12;;;;;;;;;;;;;;;;;;112500;210;39653;-39
2023/10/05 16:28:45;;;;;;;;;;;;;;;;;;112448;209;43920;-39
2023/10/05 16:31:21;;;;;;;;;;;;;;;;;;112392;210;41695;-39
2023/10/05 16:33:54;;;;;;;;;;;;;;;;;;112506;210;38892;-39
2023/10/05 16:36:28;;;;;;;;;;;;;;;;;;112308;210;40941;-39
2023/10/05 16:39:01;;;;;;;;;;;;;;;;;;112485;209;44143;-39
2023/10/05 16:41:33;;;;;;;;;;;;;;;;;;112500;210;41668;-40
2023/10/05 16:44:09;;;;;;;;;;;;;;;;;;112460;210;39963;-42
2023/10/05 16:46:47;;;;;;;;;;;;;;;;;;112495;209;40998;-43
2023/10/05 16:49:19;;;;;;;;;;;;;;;;;;112359;209;42839;-41
2023/10/05 16:51:55;;;;;;;;;;;;;;;;;;112503;210;41836;-39
2023/10/05 16:54:30;;;;;;;;;;;;;;;;;;112492;209;38943;-42
2023/10/05 16:57:03;;;;;;;;;;;;;;;;;;112437;209;39762;-41
2023/10/05 16:59:37;;;;;;;;;;;;;;;;;;112455;209;41580;-42
2023/10/05 17:02:13;;;;;;;;;;;;;;;;;;112424;210;41607;-40
2023/10/05 17:04:49;;;;;;;;;;;;;;;;;;112481;210;38466;-40
2023/10/05 17:07:22;;;;;;;;;;;;;;;;;;112434;210;40079;-40
2023/10/05 17:09:54;;;;;;;;;;;;;;;;;;112313;209;175622;-39
2023/10/05 17:12:27;;;;;;;;;;;;;;;;;;112482;210;43235;-40
2023/10/05 17:15:02;;;;;;;;;;;;;;;;;;112375;210;38730;-42
2023/10/05 17:17:36;;;;;;;;;;;;;;;;;;112500;209;39638;-38
2023/10/05 17:20:11;;;;;;;;;;;;;;;;;;112436;209;42966;-39
2023/10/05 17:22:43;;;;;;;;;;;;;;;;;;112497;210;41624;-43
2023/10/05 17:25:21;;;;;;;;;;;;;;;;;;112466;210;38732;-46
2023/10/05 17:27:55;;;;;;;;;;;;;;;;;;112469;210;39885;-47
2023/10/05 17:30:27;;;;;;;;;;;;;;;;;;112497;209;43158;-45
2023/10/05 17:33:00;;;;;;;;;;;;;;;;;;112502;210;41703;-44
2023/10/05 17:35:34;;;;;;;;;;;;;;;;;;112401;210;38441;-46
2023/10/05 17:38:10;;;;;;;;;;;;;;;;;;112472;210;40833;-44
2023/10/05 17:40:55;;;;;;;;;;;;;;;;;;112439;209;42947;-46
2023/10/05 17:43:28;;;;;;;;;;;;;;;;;;112473;210;41573;-44
2023/10/05 17:46:06;;;;;;;;;;;;;;;;;;112503;210;38897;-45
2023/10/05 17:48:40;;;;;;;;;;;;;;;;;;112516;210;40832;-45